sensor_id;sensor_type;location;lat;lon;timestamp;temperature;humidity
52656;SHT85;35474;51.032;6.998;2023-06-26T00:00:34;22.84;61.79
52656;SHT85;35474;51.032;6.998;2023-06-26T00:03:04;22.81;61.98
52656;SHT85;35474;51.032;6.998;2023-06-26T00:05:30;22.81;61.89
52656;SHT85;35474;51.032;6.998;2023-06-26T00:07:57;22.73;62.00
52656;SHT85;35474;51.032;6.998;2023-06-26T00:10:27;22.73;61.92
52656;SHT85;35474;51.032;6.998;2023-06-26T00:12:54;22.71;61.89
52656;SHT85;35474;51.032;6.998;2023-06-26T00:15:21;22.54;62.32
52656;SHT85;35474;51.032;6.998;2023-06-26T00:17:48;22.53;62.27
52656;SHT85;35474;51.032;6.998;2023-06-26T00:20:15;22.60;62.29
52656;SHT85;35474;51.032;6.998;2023-06-26T00:22:42;22.50;62.31
52656;SHT85;35474;51.032;6.998;2023-06-26T00:25:09;22.51;62.30
52656;SHT85;35474;51.032;6.998;2023-06-26T00:27:36;22.59;61.87
52656;SHT85;35474;51.032;6.998;2023-06-26T00:30:05;22.40;62.40
52656;SHT85;35474;51.032;6.998;2023-06-26T00:32:32;22.41;62.14
52656;SHT85;35474;51.032;6.998;2023-06-26T00:34:59;22.33;62.17
52656;SHT85;35474;51.032;6.998;2023-06-26T00:37:26;22.29;62.19
52656;SHT85;35474;51.032;6.998;2023-06-26T00:39:52;22.26;62.18
52656;SHT85;35474;51.032;6.998;2023-06-26T00:42:19;22.18;62.36
52656;SHT85;35474;51.032;6.998;2023-06-26T00:44:45;22.22;62.29
52656;SHT85;35474;51.032;6.998;2023-06-26T00:47:14;22.20;62.34
52656;SHT85;35474;51.032;6.998;2023-06-26T00:49:42;22.16;62.20
52656;SHT85;35474;51.032;6.998;2023-06-26T00:52:08;22.16;62.10
52656;SHT85;35474;51.032;6.998;2023-06-26T00:54:35;22.12;62.24
52656;SHT85;35474;51.032;6.998;2023-06-26T00:57:02;22.10;62.02
52656;SHT85;35474;51.032;6.998;2023-06-26T00:59:30;22.09;61.85
52656;SHT85;35474;51.032;6.998;2023-06-26T01:01:56;22.06;61.86
52656;SHT85;35474;51.032;6.998;2023-06-26T01:04:23;22.02;61.87
52656;SHT85;35474;51.032;6.998;2023-06-26T01:06:53;22.10;61.65
52656;SHT85;35474;51.032;6.998;2023-06-26T01:09:22;21.93;62.01
52656;SHT85;35474;51.032;6.998;2023-06-26T01:11:49;22.06;61.99
52656;SHT85;35474;51.032;6.998;2023-06-26T01:14:16;21.92;62.40
52656;SHT85;35474;51.032;6.998;2023-06-26T01:16:43;21.86;63.19
52656;SHT85;35474;51.032;6.998;2023-06-26T01:19:19;21.81;63.92
52656;SHT85;35474;51.032;6.998;2023-06-26T01:21:54;21.79;64.36
52656;SHT85;35474;51.032;6.998;2023-06-26T01:24:30;21.74;64.41
52656;SHT85;35474;51.032;6.998;2023-06-26T01:26:59;21.60;64.77
52656;SHT85;35474;51.032;6.998;2023-06-26T01:29:30;21.58;65.03
52656;SHT85;35474;51.032;6.998;2023-06-26T01:31:59;21.55;64.96
52656;SHT85;35474;51.032;6.998;2023-06-26T01:34:26;21.45;65.30
52656;SHT85;35474;51.032;6.998;2023-06-26T01:36:53;21.57;65.26
52656;SHT85;35474;51.032;6.998;2023-06-26T01:39:20;21.52;65.58
52656;SHT85;35474;51.032;6.998;2023-06-26T01:41:46;21.50;65.65
52656;SHT85;35474;51.032;6.998;2023-06-26T01:47:02;21.32;66.36
52656;SHT85;35474;51.032;6.998;2023-06-26T01:49:33;21.28;66.85
52656;SHT85;35474;51.032;6.998;2023-06-26T01:52:57;21.28;66.73
52656;SHT85;35474;51.032;6.998;2023-06-26T01:55:24;21.21;67.12
52656;SHT85;35474;51.032;6.998;2023-06-26T01:58:05;21.21;67.29
52656;SHT85;35474;51.032;6.998;2023-06-26T02:00:33;21.23;67.21
52656;SHT85;35474;51.032;6.998;2023-06-26T02:03:01;21.20;67.26
52656;SHT85;35474;51.032;6.998;2023-06-26T02:05:28;21.16;67.47
52656;SHT85;35474;51.032;6.998;2023-06-26T02:07:57;21.02;67.59
52656;SHT85;35474;51.032;6.998;2023-06-26T02:10:23;21.03;67.62
52656;SHT85;35474;51.032;6.998;2023-06-26T02:12:50;20.99;67.91
52656;SHT85;35474;51.032;6.998;2023-06-26T02:15:16;20.86;68.40
52656;SHT85;35474;51.032;6.998;2023-06-26T02:17:43;20.83;68.44
52656;SHT85;35474;51.032;6.998;2023-06-26T02:20:14;20.94;67.59
52656;SHT85;35474;51.032;6.998;2023-06-26T02:22:41;20.90;67.62
52656;SHT85;35474;51.032;6.998;2023-06-26T02:25:09;20.80;67.81
52656;SHT85;35474;51.032;6.998;2023-06-26T02:27:36;20.84;67.77
52656;SHT85;35474;51.032;6.998;2023-06-26T02:30:03;20.89;67.32
52656;SHT85;35474;51.032;6.998;2023-06-26T02:32:30;20.86;67.12
52656;SHT85;35474;51.032;6.998;2023-06-26T02:34:57;20.69;67.58
52656;SHT85;35474;51.032;6.998;2023-06-26T02:37:23;20.87;66.67
52656;SHT85;35474;51.032;6.998;2023-06-26T02:39:50;20.87;66.79
52656;SHT85;35474;51.032;6.998;2023-06-26T02:42:16;20.87;66.94
52656;SHT85;35474;51.032;6.998;2023-06-26T02:44:43;20.77;67.09
52656;SHT85;35474;51.032;6.998;2023-06-26T02:47:10;20.77;67.43
52656;SHT85;35474;51.032;6.998;2023-06-26T02:49:36;20.87;67.19
52656;SHT85;35474;51.032;6.998;2023-06-26T02:52:03;20.92;66.80
52656;SHT85;35474;51.032;6.998;2023-06-26T02:54:30;20.83;66.77
52656;SHT85;35474;51.032;6.998;2023-06-26T02:56:56;20.77;66.99
52656;SHT85;35474;51.032;6.998;2023-06-26T02:59:23;20.66;67.61
52656;SHT85;35474;51.032;6.998;2023-06-26T03:01:50;20.65;67.54
52656;SHT85;35474;51.032;6.998;2023-06-26T03:04:17;20.89;66.82
52656;SHT85;35474;51.032;6.998;2023-06-26T03:06:44;20.92;66.50
52656;SHT85;35474;51.032;6.998;2023-06-26T03:09:11;20.80;66.87
52656;SHT85;35474;51.032;6.998;2023-06-26T03:11:37;20.90;66.86
52656;SHT85;35474;51.032;6.998;2023-06-26T03:14:04;20.87;66.66
52656;SHT85;35474;51.032;6.998;2023-06-26T03:16:31;20.89;66.59
52656;SHT85;35474;51.032;6.998;2023-06-26T03:18:57;21.02;66.61
52656;SHT85;35474;51.032;6.998;2023-06-26T03:21:24;20.94;67.18
52656;SHT85;35474;51.032;6.998;2023-06-26T03:23:51;20.89;67.26
52656;SHT85;35474;51.032;6.998;2023-06-26T03:26:17;20.99;66.86
52656;SHT85;35474;51.032;6.998;2023-06-26T03:28:44;21.02;66.69
52656;SHT85;35474;51.032;6.998;2023-06-26T03:31:10;21.16;66.64
52656;SHT85;35474;51.032;6.998;2023-06-26T03:33:37;21.21;66.60
52656;SHT85;35474;51.032;6.998;2023-06-26T03:36:04;21.24;66.21
52656;SHT85;35474;51.032;6.998;2023-06-26T03:38:32;21.51;64.94
52656;SHT85;35474;51.032;6.998;2023-06-26T03:40:59;21.62;64.77
52656;SHT85;35474;51.032;6.998;2023-06-26T03:43:25;21.83;64.09
52656;SHT85;35474;51.032;6.998;2023-06-26T03:45:52;22.22;62.89
52656;SHT85;35474;51.032;6.998;2023-06-26T03:48:19;22.23;62.61
52656;SHT85;35474;51.032;6.998;2023-06-26T03:50:45;22.27;62.73
52656;SHT85;35474;51.032;6.998;2023-06-26T03:53:12;22.30;63.13
52656;SHT85;35474;51.032;6.998;2023-06-26T03:55:39;22.30;63.68
52656;SHT85;35474;51.032;6.998;2023-06-26T03:58:06;22.30;63.93
52656;SHT85;35474;51.032;6.998;2023-06-26T04:00:33;22.25;64.41
52656;SHT85;35474;51.032;6.998;2023-06-26T04:02:59;22.19;64.85
52656;SHT85;35474;51.032;6.998;2023-06-26T04:05:26;22.16;65.04
52656;SHT85;35474;51.032;6.998;2023-06-26T04:07:53;22.09;65.48
52656;SHT85;35474;51.032;6.998;2023-06-26T04:10:19;22.03;65.61
52656;SHT85;35474;51.032;6.998;2023-06-26T04:12:47;22.02;65.59
52656;SHT85;35474;51.032;6.998;2023-06-26T04:15:14;21.99;65.83
52656;SHT85;35474;51.032;6.998;2023-06-26T04:17:41;22.03;65.62
52656;SHT85;35474;51.032;6.998;2023-06-26T04:20:08;22.06;65.83
52656;SHT85;35474;51.032;6.998;2023-06-26T04:22:35;22.03;65.97
52656;SHT85;35474;51.032;6.998;2023-06-26T04:25:03;21.98;66.16
52656;SHT85;35474;51.032;6.998;2023-06-26T04:27:30;21.95;66.60
52656;SHT85;35474;51.032;6.998;2023-06-26T04:29:57;21.92;67.01
52656;SHT85;35474;51.032;6.998;2023-06-26T04:32:23;21.81;67.60
52656;SHT85;35474;51.032;6.998;2023-06-26T04:34:50;21.82;67.88
52656;SHT85;35474;51.032;6.998;2023-06-26T04:37:17;21.75;68.31
52656;SHT85;35474;51.032;6.998;2023-06-26T04:39:43;21.79;68.39
52656;SHT85;35474;51.032;6.998;2023-06-26T04:42:10;21.77;68.52
52656;SHT85;35474;51.032;6.998;2023-06-26T04:44:39;21.82;68.58
52656;SHT85;35474;51.032;6.998;2023-06-26T04:47:07;21.71;68.51
52656;SHT85;35474;51.032;6.998;2023-06-26T04:49:35;21.69;68.79
52656;SHT85;35474;51.032;6.998;2023-06-26T04:52:04;21.77;68.81
52656;SHT85;35474;51.032;6.998;2023-06-26T04:54:57;21.72;68.61
52656;SHT85;35474;51.032;6.998;2023-06-26T04:57:24;21.81;68.65
52656;SHT85;35474;51.032;6.998;2023-06-26T04:59:50;21.79;68.75
52656;SHT85;35474;51.032;6.998;2023-06-26T05:02:17;21.79;68.62
52656;SHT85;35474;51.032;6.998;2023-06-26T05:04:44;21.88;68.00
52656;SHT85;35474;51.032;6.998;2023-06-26T05:07:12;21.96;67.97
52656;SHT85;35474;51.032;6.998;2023-06-26T05:09:39;22.00;67.24
52656;SHT85;35474;51.032;6.998;2023-06-26T05:12:06;21.88;67.67
52656;SHT85;35474;51.032;6.998;2023-06-26T05:14:32;21.74;67.44
52656;SHT85;35474;51.032;6.998;2023-06-26T05:16:59;21.85;67.48
52656;SHT85;35474;51.032;6.998;2023-06-26T05:19:26;21.65;67.53
52656;SHT85;35474;51.032;6.998;2023-06-26T05:21:52;21.69;67.15
52656;SHT85;35474;51.032;6.998;2023-06-26T05:24:19;21.93;66.74
52656;SHT85;35474;51.032;6.998;2023-06-26T05:26:50;21.78;66.39
52656;SHT85;35474;51.032;6.998;2023-06-26T05:29:17;21.81;66.83
52656;SHT85;35474;51.032;6.998;2023-06-26T05:31:44;21.50;66.94
52656;SHT85;35474;51.032;6.998;2023-06-26T05:34:12;21.54;66.97
52656;SHT85;35474;51.032;6.998;2023-06-26T05:36:41;21.58;66.76
52656;SHT85;35474;51.032;6.998;2023-06-26T05:39:09;21.48;66.99
52656;SHT85;35474;51.032;6.998;2023-06-26T05:41:36;21.45;67.14
52656;SHT85;35474;51.032;6.998;2023-06-26T05:44:03;21.50;67.20
52656;SHT85;35474;51.032;6.998;2023-06-26T05:46:29;21.47;66.89
52656;SHT85;35474;51.032;6.998;2023-06-26T05:48:56;21.27;67.76
52656;SHT85;35474;51.032;6.998;2023-06-26T05:51:23;21.48;67.35
52656;SHT85;35474;51.032;6.998;2023-06-26T05:53:50;21.58;67.01
52656;SHT85;35474;51.032;6.998;2023-06-26T05:56:17;21.57;67.18
52656;SHT85;35474;51.032;6.998;2023-06-26T05:58:45;21.47;67.62
52656;SHT85;35474;51.032;6.998;2023-06-26T06:01:13;21.55;67.64
52656;SHT85;35474;51.032;6.998;2023-06-26T06:03:39;21.44;67.70
52656;SHT85;35474;51.032;6.998;2023-06-26T06:06:07;21.55;67.64
52656;SHT85;35474;51.032;6.998;2023-06-26T06:08:33;21.41;67.63
52656;SHT85;35474;51.032;6.998;2023-06-26T06:11:00;21.54;67.40
52656;SHT85;35474;51.032;6.998;2023-06-26T06:13:28;21.75;67.09
52656;SHT85;35474;51.032;6.998;2023-06-26T06:15:54;21.45;67.59
52656;SHT85;35474;51.032;6.998;2023-06-26T06:18:22;21.38;68.06
52656;SHT85;35474;51.032;6.998;2023-06-26T06:20:48;21.47;67.95
52656;SHT85;35474;51.032;6.998;2023-06-26T06:23:15;21.41;67.84
52656;SHT85;35474;51.032;6.998;2023-06-26T06:25:42;21.17;68.62
52656;SHT85;35474;51.032;6.998;2023-06-26T06:28:08;21.21;68.51
52656;SHT85;35474;51.032;6.998;2023-06-26T06:32:34;21.34;68.41
52656;SHT85;35474;51.032;6.998;2023-06-26T06:35:01;21.44;67.95
52656;SHT85;35474;51.032;6.998;2023-06-26T06:37:38;21.44;68.09
52656;SHT85;35474;51.032;6.998;2023-06-26T06:40:05;21.16;69.15
52656;SHT85;35474;51.032;6.998;2023-06-26T06:42:33;21.50;68.41
52656;SHT85;35474;51.032;6.998;2023-06-26T06:45:01;21.51;68.32
52656;SHT85;35474;51.032;6.998;2023-06-26T06:47:31;21.27;68.83
52656;SHT85;35474;51.032;6.998;2023-06-26T06:49:59;21.10;69.51
52656;SHT85;35474;51.032;6.998;2023-06-26T06:52:37;21.24;68.98
52656;SHT85;35474;51.032;6.998;2023-06-26T06:55:06;21.30;69.05
52656;SHT85;35474;51.032;6.998;2023-06-26T06:57:35;20.94;69.80
52656;SHT85;35474;51.032;6.998;2023-06-26T07:00:04;20.89;70.27
52656;SHT85;35474;51.032;6.998;2023-06-26T07:02:35;20.72;70.58
52656;SHT85;35474;51.032;6.998;2023-06-26T07:05:03;20.62;71.07
52656;SHT85;35474;51.032;6.998;2023-06-26T07:07:31;20.86;70.51
52656;SHT85;35474;51.032;6.998;2023-06-26T07:09:59;20.89;70.57
52656;SHT85;35474;51.032;6.998;2023-06-26T07:12:27;21.17;70.02
52656;SHT85;35474;51.032;6.998;2023-06-26T07:14:55;21.41;69.50
52656;SHT85;35474;51.032;6.998;2023-06-26T07:17:22;21.30;69.55
52656;SHT85;35474;51.032;6.998;2023-06-26T07:19:49;21.27;69.57
52656;SHT85;35474;51.032;6.998;2023-06-26T07:22:16;21.20;69.98
52656;SHT85;35474;51.032;6.998;2023-06-26T07:24:43;21.41;69.41
52656;SHT85;35474;51.032;6.998;2023-06-26T07:27:09;21.42;69.22
52656;SHT85;35474;51.032;6.998;2023-06-26T07:29:36;21.55;69.11
52656;SHT85;35474;51.032;6.998;2023-06-26T07:32:03;21.48;68.94
52656;SHT85;35474;51.032;6.998;2023-06-26T07:34:30;21.52;69.12
52656;SHT85;35474;51.032;6.998;2023-06-26T07:36:56;21.78;68.24
52656;SHT85;35474;51.032;6.998;2023-06-26T07:39:23;22.06;67.72
52656;SHT85;35474;51.032;6.998;2023-06-26T07:41:52;21.78;68.02
52656;SHT85;35474;51.032;6.998;2023-06-26T07:44:19;21.74;68.09
52656;SHT85;35474;51.032;6.998;2023-06-26T07:46:46;21.75;68.25
52656;SHT85;35474;51.032;6.998;2023-06-26T07:49:13;21.69;68.43
52656;SHT85;35474;51.032;6.998;2023-06-26T07:51:39;21.79;67.89
52656;SHT85;35474;51.032;6.998;2023-06-26T07:54:06;22.03;67.96
52656;SHT85;35474;51.032;6.998;2023-06-26T07:56:35;22.22;67.31
52656;SHT85;35474;51.032;6.998;2023-06-26T07:59:20;22.39;66.64
52656;SHT85;35474;51.032;6.998;2023-06-26T08:01:52;22.19;66.44
52656;SHT85;35474;51.032;6.998;2023-06-26T08:04:20;22.08;66.91
52656;SHT85;35474;51.032;6.998;2023-06-26T08:06:53;21.99;67.38
52656;SHT85;35474;51.032;6.998;2023-06-26T08:09:22;21.93;67.64
52656;SHT85;35474;51.032;6.998;2023-06-26T08:11:50;22.00;67.31
52656;SHT85;35474;51.032;6.998;2023-06-26T08:14:17;22.09;67.93
52656;SHT85;35474;51.032;6.998;2023-06-26T08:16:44;22.13;67.39
52656;SHT85;35474;51.032;6.998;2023-06-26T08:19:12;22.23;67.56
52656;SHT85;35474;51.032;6.998;2023-06-26T08:21:39;22.43;67.36
52656;SHT85;35474;51.032;6.998;2023-06-26T08:24:07;22.70;66.07
52656;SHT85;35474;51.032;6.998;2023-06-26T08:26:34;22.51;67.37
52656;SHT85;35474;51.032;6.998;2023-06-26T08:29:02;22.56;66.90
52656;SHT85;35474;51.032;6.998;2023-06-26T08:31:38;22.09;67.32
52656;SHT85;35474;51.032;6.998;2023-06-26T08:34:06;22.40;66.92
52656;SHT85;35474;51.032;6.998;2023-06-26T08:36:33;22.30;67.30
52656;SHT85;35474;51.032;6.998;2023-06-26T08:39:00;22.06;67.85
52656;SHT85;35474;51.032;6.998;2023-06-26T08:41:26;22.91;65.67
52656;SHT85;35474;51.032;6.998;2023-06-26T08:43:53;23.39;63.81
52656;SHT85;35474;51.032;6.998;2023-06-26T08:46:20;23.08;64.16
52656;SHT85;35474;51.032;6.998;2023-06-26T08:48:56;23.31;63.16
52656;SHT85;35474;51.032;6.998;2023-06-26T08:51:28;22.47;65.83
52656;SHT85;35474;51.032;6.998;2023-06-26T08:54:00;22.39;66.37
52656;SHT85;35474;51.032;6.998;2023-06-26T08:56:30;22.54;66.09
52656;SHT85;35474;51.032;6.998;2023-06-26T08:58:59;22.85;64.94
52656;SHT85;35474;51.032;6.998;2023-06-26T09:01:26;22.71;65.07
52656;SHT85;35474;51.032;6.998;2023-06-26T09:03:54;23.04;64.03
52656;SHT85;35474;51.032;6.998;2023-06-26T09:06:21;23.04;63.93
52656;SHT85;35474;51.032;6.998;2023-06-26T09:08:48;22.60;65.25
52656;SHT85;35474;51.032;6.998;2023-06-26T09:11:15;22.90;64.51
52656;SHT85;35474;51.032;6.998;2023-06-26T09:13:42;22.92;64.22
52656;SHT85;35474;51.032;6.998;2023-06-26T09:16:09;22.73;64.79
52656;SHT85;35474;51.032;6.998;2023-06-26T09:18:42;22.76;65.01
52656;SHT85;35474;51.032;6.998;2023-06-26T09:21:09;23.11;63.06
52656;SHT85;35474;51.032;6.998;2023-06-26T09:23:36;23.22;63.53
52656;SHT85;35474;51.032;6.998;2023-06-26T09:26:03;23.66;62.46
52656;SHT85;35474;51.032;6.998;2023-06-26T09:28:34;23.63;61.57
52656;SHT85;35474;51.032;6.998;2023-06-26T09:31:02;23.07;63.30
52656;SHT85;35474;51.032;6.998;2023-06-26T09:33:34;22.77;63.45
52656;SHT85;35474;51.032;6.998;2023-06-26T09:36:06;23.26;60.95
52656;SHT85;35474;51.032;6.998;2023-06-26T09:38:36;23.35;60.02
52656;SHT85;35474;51.032;6.998;2023-06-26T09:41:03;23.24;60.77
52656;SHT85;35474;51.032;6.998;2023-06-26T09:43:30;23.93;59.30
52656;SHT85;35474;51.032;6.998;2023-06-26T09:45:58;24.38;57.64
52656;SHT85;35474;51.032;6.998;2023-06-26T09:48:27;24.47;56.51
52656;SHT85;35474;51.032;6.998;2023-06-26T09:50:55;25.23;55.51
52656;SHT85;35474;51.032;6.998;2023-06-26T09:53:37;24.85;55.62
52656;SHT85;35474;51.032;6.998;2023-06-26T09:56:07;23.38;59.92
52656;SHT85;35474;51.032;6.998;2023-06-26T09:58:43;24.51;57.36
52656;SHT85;35474;51.032;6.998;2023-06-26T10:01:10;24.53;56.44
52656;SHT85;35474;51.032;6.998;2023-06-26T10:03:37;24.31;56.19
52656;SHT85;35474;51.032;6.998;2023-06-26T10:06:03;24.03;55.74
52656;SHT85;35474;51.032;6.998;2023-06-26T10:08:31;24.41;54.64
52656;SHT85;35474;51.032;6.998;2023-06-26T10:11:00;24.17;55.96
52656;SHT85;35474;51.032;6.998;2023-06-26T10:13:28;24.64;55.38
52656;SHT85;35474;51.032;6.998;2023-06-26T10:15:59;24.25;56.90
52656;SHT85;35474;51.032;6.998;2023-06-26T10:18:28;23.82;57.59
52656;SHT85;35474;51.032;6.998;2023-06-26T10:20:58;24.17;57.00
52656;SHT85;35474;51.032;6.998;2023-06-26T10:23:27;24.20;56.91
52656;SHT85;35474;51.032;6.998;2023-06-26T10:25:55;24.75;55.08
52656;SHT85;35474;51.032;6.998;2023-06-26T10:28:28;24.28;54.01
52656;SHT85;35474;51.032;6.998;2023-06-26T10:30:57;24.81;53.34
52656;SHT85;35474;51.032;6.998;2023-06-26T10:33:27;24.57;52.60
52656;SHT85;35474;51.032;6.998;2023-06-26T10:35:53;25.33;50.75
52656;SHT85;35474;51.032;6.998;2023-06-26T10:39:12;25.26;50.38
52656;SHT85;35474;51.032;6.998;2023-06-26T10:41:36;25.00;52.16
52656;SHT85;35474;51.032;6.998;2023-06-26T10:44:18;24.79;51.84
52656;SHT85;35474;51.032;6.998;2023-06-26T10:46:54;24.71;50.48
52656;SHT85;35474;51.032;6.998;2023-06-26T10:49:26;25.18;50.48
52656;SHT85;35474;51.032;6.998;2023-06-26T10:51:55;25.92;49.33
52656;SHT85;35474;51.032;6.998;2023-06-26T10:54:30;26.24;48.48
52656;SHT85;35474;51.032;6.998;2023-06-26T10:56:58;24.79;51.11
52656;SHT85;35474;51.032;6.998;2023-06-26T10:59:25;25.54;50.30
52656;SHT85;35474;51.032;6.998;2023-06-26T11:02:04;26.62;46.99
52656;SHT85;35474;51.032;6.998;2023-06-26T11:04:46;24.65;48.57
52656;SHT85;35474;51.032;6.998;2023-06-26T11:07:23;24.71;48.00
52656;SHT85;35474;51.032;6.998;2023-06-26T11:10:09;25.47;47.68
52656;SHT85;35474;51.032;6.998;2023-06-26T11:12:43;25.57;48.19
52656;SHT85;35474;51.032;6.998;2023-06-26T11:15:12;25.91;46.76
52656;SHT85;35474;51.032;6.998;2023-06-26T11:17:40;25.19;48.15
52656;SHT85;35474;51.032;6.998;2023-06-26T11:20:11;25.37;47.70
52656;SHT85;35474;51.032;6.998;2023-06-26T11:22:41;25.13;46.71
52656;SHT85;35474;51.032;6.998;2023-06-26T11:25:09;25.66;45.15
52656;SHT85;35474;51.032;6.998;2023-06-26T11:27:40;25.77;44.57
52656;SHT85;35474;51.032;6.998;2023-06-26T11:30:10;25.27;45.83
52656;SHT85;35474;51.032;6.998;2023-06-26T11:32:48;25.31;46.43
52656;SHT85;35474;51.032;6.998;2023-06-26T11:35:25;26.18;45.35
52656;SHT85;35474;51.032;6.998;2023-06-26T11:37:59;27.05;42.46
52656;SHT85;35474;51.032;6.998;2023-06-26T11:40:32;27.00;42.65
52656;SHT85;35474;51.032;6.998;2023-06-26T11:43:02;26.95;41.54
52656;SHT85;35474;51.032;6.998;2023-06-26T11:45:33;24.69;47.27
52656;SHT85;35474;51.032;6.998;2023-06-26T11:48:00;24.21;49.22
52656;SHT85;35474;51.032;6.998;2023-06-26T11:50:27;24.09;50.03
52656;SHT85;35474;51.032;6.998;2023-06-26T11:52:54;24.18;49.52
52656;SHT85;35474;51.032;6.998;2023-06-26T11:55:22;25.12;47.34
52656;SHT85;35474;51.032;6.998;2023-06-26T11:57:50;25.99;43.24
52656;SHT85;35474;51.032;6.998;2023-06-26T12:00:19;26.26;42.49
52656;SHT85;35474;51.032;6.998;2023-06-26T12:02:46;26.76;42.41
52656;SHT85;35474;51.032;6.998;2023-06-26T12:05:14;25.98;44.13
52656;SHT85;35474;51.032;6.998;2023-06-26T12:07:42;25.58;43.82
52656;SHT85;35474;51.032;6.998;2023-06-26T12:10:10;25.23;44.26
52656;SHT85;35474;51.032;6.998;2023-06-26T12:12:38;24.85;45.04
52656;SHT85;35474;51.032;6.998;2023-06-26T12:15:06;25.63;44.34
52656;SHT85;35474;51.032;6.998;2023-06-26T12:17:36;26.56;42.20
52656;SHT85;35474;51.032;6.998;2023-06-26T12:20:05;26.05;44.16
52656;SHT85;35474;51.032;6.998;2023-06-26T12:22:45;25.84;44.38
52656;SHT85;35474;51.032;6.998;2023-06-26T12:25:13;25.88;45.19
52656;SHT85;35474;51.032;6.998;2023-06-26T12:27:41;26.88;43.29
52656;SHT85;35474;51.032;6.998;2023-06-26T12:30:07;26.07;44.25
52656;SHT85;35474;51.032;6.998;2023-06-26T12:32:34;26.40;44.00
52656;SHT85;35474;51.032;6.998;2023-06-26T12:35:01;25.50;44.70
52656;SHT85;35474;51.032;6.998;2023-06-26T12:37:28;25.22;44.94
52656;SHT85;35474;51.032;6.998;2023-06-26T12:39:56;26.33;43.12
52656;SHT85;35474;51.032;6.998;2023-06-26T12:42:24;26.83;43.14
52656;SHT85;35474;51.032;6.998;2023-06-26T12:44:53;25.91;44.51
52656;SHT85;35474;51.032;6.998;2023-06-26T12:47:24;25.34;43.96
52656;SHT85;35474;51.032;6.998;2023-06-26T12:49:53;25.27;44.13
52656;SHT85;35474;51.032;6.998;2023-06-26T12:52:20;24.98;43.65
52656;SHT85;35474;51.032;6.998;2023-06-26T12:54:51;24.96;43.64
52656;SHT85;35474;51.032;6.998;2023-06-26T12:57:19;25.19;43.67
52656;SHT85;35474;51.032;6.998;2023-06-26T12:59:45;25.36;43.25
52656;SHT85;35474;51.032;6.998;2023-06-26T13:02:12;26.40;41.54
52656;SHT85;35474;51.032;6.998;2023-06-26T13:04:39;25.66;43.76
52656;SHT85;35474;51.032;6.998;2023-06-26T13:07:07;26.28;41.93
52656;SHT85;35474;51.032;6.998;2023-06-26T13:09:34;27.05;40.51
52656;SHT85;35474;51.032;6.998;2023-06-26T13:12:03;25.75;40.83
52656;SHT85;35474;51.032;6.998;2023-06-26T13:14:32;26.11;40.16
52656;SHT85;35474;51.032;6.998;2023-06-26T13:17:00;26.72;38.94
52656;SHT85;35474;51.032;6.998;2023-06-26T13:19:28;26.53;38.94
52656;SHT85;35474;51.032;6.998;2023-06-26T13:21:55;25.71;39.56
52656;SHT85;35474;51.032;6.998;2023-06-26T13:24:21;25.37;40.91
52656;SHT85;35474;51.032;6.998;2023-06-26T13:26:48;26.95;38.54
52656;SHT85;35474;51.032;6.998;2023-06-26T13:29:15;26.73;38.79
52656;SHT85;35474;51.032;6.998;2023-06-26T13:31:42;25.39;39.54
52656;SHT85;35474;51.032;6.998;2023-06-26T13:34:09;25.60;38.93
52656;SHT85;35474;51.032;6.998;2023-06-26T13:36:48;25.80;39.24
52656;SHT85;35474;51.032;6.998;2023-06-26T13:39:15;26.82;37.30
52656;SHT85;35474;51.032;6.998;2023-06-26T13:41:48;25.50;37.94
52656;SHT85;35474;51.032;6.998;2023-06-26T13:44:17;25.30;38.16
52656;SHT85;35474;51.032;6.998;2023-06-26T13:47:01;25.26;37.91
52656;SHT85;35474;51.032;6.998;2023-06-26T13:49:28;26.46;36.23
52656;SHT85;35474;51.032;6.998;2023-06-26T13:51:55;26.59;35.46
52656;SHT85;35474;51.032;6.998;2023-06-26T13:54:22;25.91;36.04
52656;SHT85;35474;51.032;6.998;2023-06-26T13:56:48;25.75;36.78
52656;SHT85;35474;51.032;6.998;2023-06-26T13:59:15;25.74;36.84
52656;SHT85;35474;51.032;6.998;2023-06-26T14:01:42;26.29;35.61
52656;SHT85;35474;51.032;6.998;2023-06-26T14:04:13;26.26;34.63
52656;SHT85;35474;51.032;6.998;2023-06-26T14:06:40;25.60;35.42
52656;SHT85;35474;51.032;6.998;2023-06-26T14:09:06;26.08;35.28
52656;SHT85;35474;51.032;6.998;2023-06-26T14:11:35;24.90;35.46
52656;SHT85;35474;51.032;6.998;2023-06-26T14:14:04;25.71;34.50
52656;SHT85;35474;51.032;6.998;2023-06-26T14:16:31;25.31;34.80
52656;SHT85;35474;51.032;6.998;2023-06-26T14:18:59;24.92;35.39
52656;SHT85;35474;51.032;6.998;2023-06-26T14:21:26;26.33;33.94
52656;SHT85;35474;51.032;6.998;2023-06-26T14:23:57;26.28;34.51
52656;SHT85;35474;51.032;6.998;2023-06-26T14:26:23;25.73;35.52
52656;SHT85;35474;51.032;6.998;2023-06-26T14:28:50;25.77;36.04
52656;SHT85;35474;51.032;6.998;2023-06-26T14:31:17;26.65;34.71
52656;SHT85;35474;51.032;6.998;2023-06-26T14:33:44;26.74;34.70
52656;SHT85;35474;51.032;6.998;2023-06-26T14:36:14;26.50;35.72
52656;SHT85;35474;51.032;6.998;2023-06-26T14:38:40;26.42;36.27
52656;SHT85;35474;51.032;6.998;2023-06-26T14:41:07;26.29;36.59
52656;SHT85;35474;51.032;6.998;2023-06-26T14:43:35;25.64;37.68
52656;SHT85;35474;51.032;6.998;2023-06-26T14:46:02;25.99;37.88
52656;SHT85;35474;51.032;6.998;2023-06-26T14:48:29;26.87;37.01
52656;SHT85;35474;51.032;6.998;2023-06-26T14:50:56;26.74;36.15
52656;SHT85;35474;51.032;6.998;2023-06-26T14:53:23;25.92;37.25
52656;SHT85;35474;51.032;6.998;2023-06-26T14:55:49;25.41;37.93
52656;SHT85;35474;51.032;6.998;2023-06-26T14:58:16;25.10;38.36
52656;SHT85;35474;51.032;6.998;2023-06-26T15:00:42;24.48;39.42
52656;SHT85;35474;51.032;6.998;2023-06-26T15:03:10;24.37;39.06
52656;SHT85;35474;51.032;6.998;2023-06-26T15:05:37;24.49;38.60
52656;SHT85;35474;51.032;6.998;2023-06-26T15:08:04;25.10;37.68
52656;SHT85;35474;51.032;6.998;2023-06-26T15:10:31;24.82;38.21
52656;SHT85;35474;51.032;6.998;2023-06-26T15:12:59;24.51;39.07
52656;SHT85;35474;51.032;6.998;2023-06-26T15:15:26;24.20;38.64
52656;SHT85;35474;51.032;6.998;2023-06-26T15:17:52;24.30;39.20
52656;SHT85;35474;51.032;6.998;2023-06-26T15:20:19;25.02;38.73
52656;SHT85;35474;51.032;6.998;2023-06-26T15:22:46;25.87;38.51
52656;SHT85;35474;51.032;6.998;2023-06-26T15:25:12;26.15;38.05
52656;SHT85;35474;51.032;6.998;2023-06-26T15:27:39;25.55;38.77
52656;SHT85;35474;51.032;6.998;2023-06-26T15:30:06;25.19;39.73
52656;SHT85;35474;51.032;6.998;2023-06-26T15:32:33;24.68;40.85
52656;SHT85;35474;51.032;6.998;2023-06-26T15:35:00;24.75;40.60
52656;SHT85;35474;51.032;6.998;2023-06-26T15:37:27;24.20;40.66
52656;SHT85;35474;51.032;6.998;2023-06-26T15:39:53;24.41;40.56
52656;SHT85;35474;51.032;6.998;2023-06-26T15:42:20;25.12;39.30